Fillmore, Canada
Current Conditions -  °F | °C
As of 4:00 AM on Saturday 01 Nov 2014 (Local Time) from CYEN Reporting Station
Clear Clear  
Wind Chill: 17°   Ceiling: Unl
Heat Index: 27°   Visibility: 15mi
Dew Point: 19°   Wind: 10mph
Humidity: 74%   Direction: 110°ESE
Pressure: 29.82"   Gusts: NA
Location:  49.88°N, 103.43°W
Report Text: CYEN 011000Z 11009KT 15SM SKC M03/M07 A2982 RMK SLP122
Loading
Personal Weather Stations






























Interactive Weather Map
Tropical Storm Tracking
New forecast layout! Learn more

10-Day Weather Forecast

Advertisements
Track Severe Weather on mobile